sensor_id;sensor_type;location;lat;lon;timestamp;P1;durP1;ratioP1;P2;durP2;ratioP2
30080;SDS011;16902;50.816;12.828;2022-10-16T00:00:50;2.58;;;2.47;;
30080;SDS011;16902;50.816;12.828;2022-10-16T00:05:51;2.75;;;2.28;;
30080;SDS011;16902;50.816;12.828;2022-10-16T00:11:07;2.53;;;2.42;;
30080;SDS011;16902;50.816;12.828;2022-10-16T00:16:15;2.38;;;2.28;;
30080;SDS011;16902;50.816;12.828;2022-10-16T00:21:19;2.38;;;2.28;;
30080;SDS011;16902;50.816;12.828;2022-10-16T00:26:23;2.53;;;2.42;;
30080;SDS011;16902;50.816;12.828;2022-10-16T00:31:25;2.75;;;2.55;;
30080;SDS011;16902;50.816;12.828;2022-10-16T00:36:28;5.15;;;2.17;;
30080;SDS011;16902;50.816;12.828;2022-10-16T00:41:30;2.28;;;2.17;;
30080;SDS011;16902;50.816;12.828;2022-10-16T00:51:42;2.40;;;2.30;;
30080;SDS011;16902;50.816;12.828;2022-10-16T00:56:46;2.60;;;2.50;;
30080;SDS011;16902;50.816;12.828;2022-10-16T01:01:48;2.67;;;2.58;;
30080;SDS011;16902;50.816;12.828;2022-10-16T01:07:06;2.15;;;2.15;;
30080;SDS011;16902;50.816;12.828;2022-10-16T01:12:13;2.50;;;2.40;;
30080;SDS011;16902;50.816;12.828;2022-10-16T01:17:19;2.28;;;2.20;;
30080;SDS011;16902;50.816;12.828;2022-10-16T01:22:26;2.40;;;2.30;;
30080;SDS011;16902;50.816;12.828;2022-10-16T01:27:39;2.50;;;2.40;;
30080;SDS011;16902;50.816;12.828;2022-10-16T01:43:56;2.30;;;2.20;;
30080;SDS011;16902;50.816;12.828;2022-10-16T01:48:59;2.42;;;2.22;;
30080;SDS011;16902;50.816;12.828;2022-10-16T01:54:03;2.55;;;2.45;;
30080;SDS011;16902;50.816;12.828;2022-10-16T01:59:15;2.53;;;2.33;;
30080;SDS011;16902;50.816;12.828;2022-10-16T02:04:30;2.50;;;2.40;;
30080;SDS011;16902;50.816;12.828;2022-10-16T02:09:39;2.58;;;2.47;;
30080;SDS011;16902;50.816;12.828;2022-10-16T02:14:41;2.60;;;2.50;;
30080;SDS011;16902;50.816;12.828;2022-10-16T02:19:43;2.33;;;2.22;;
30080;SDS011;16902;50.816;12.828;2022-10-16T02:24:51;3.45;;;2.78;;
30080;SDS011;16902;50.816;12.828;2022-10-16T02:30:33;3.20;;;2.83;;
30080;SDS011;16902;50.816;12.828;2022-10-16T02:35:51;2.58;;;2.47;;
30080;SDS011;16902;50.816;12.828;2022-10-16T02:40:55;2.72;;;2.63;;
30080;SDS011;16902;50.816;12.828;2022-10-16T02:45:57;3.17;;;2.70;;
30080;SDS011;16902;50.816;12.828;2022-10-16T02:51:00;2.70;;;2.50;;
30080;SDS011;16902;50.816;12.828;2022-10-16T02:56:02;2.67;;;2.58;;
30080;SDS011;16902;50.816;12.828;2022-10-16T03:01:04;2.80;;;2.70;;
30080;SDS011;16902;50.816;12.828;2022-10-16T03:06:06;2.47;;;2.38;;
30080;SDS011;16902;50.816;12.828;2022-10-16T03:11:07;2.63;;;2.35;;
30080;SDS011;16902;50.816;12.828;2022-10-16T03:16:09;3.17;;;2.70;;
30080;SDS011;16902;50.816;12.828;2022-10-16T03:21:11;2.90;;;2.70;;
30080;SDS011;16902;50.816;12.828;2022-10-16T03:26:13;2.42;;;2.33;;
30080;SDS011;16902;50.816;12.828;2022-10-16T03:31:15;2.90;;;2.80;;
30080;SDS011;16902;50.816;12.828;2022-10-16T03:36:17;2.70;;;2.60;;
30080;SDS011;16902;50.816;12.828;2022-10-16T03:41:19;3.13;;;2.90;;
30080;SDS011;16902;50.816;12.828;2022-10-16T03:46:21;3.28;;;2.72;;
30080;SDS011;16902;50.816;12.828;2022-10-16T03:51:22;2.70;;;2.60;;
30080;SDS011;16902;50.816;12.828;2022-10-16T03:56:24;3.03;;;2.88;;
30080;SDS011;16902;50.816;12.828;2022-10-16T04:01:27;2.60;;;2.45;;
30080;SDS011;16902;50.816;12.828;2022-10-16T04:06:29;2.40;;;2.30;;
30080;SDS011;16902;50.816;12.828;2022-10-16T04:11:31;3.33;;;2.70;;
30080;SDS011;16902;50.816;12.828;2022-10-16T04:16:33;2.42;;;2.33;;
30080;SDS011;16902;50.816;12.828;2022-10-16T04:21:34;2.40;;;2.30;;
30080;SDS011;16902;50.816;12.828;2022-10-16T04:26:37;2.80;;;2.60;;
30080;SDS011;16902;50.816;12.828;2022-10-16T04:31:39;2.42;;;2.30;;
30080;SDS011;16902;50.816;12.828;2022-10-16T04:36:41;2.50;;;2.30;;
30080;SDS011;16902;50.816;12.828;2022-10-16T04:41:43;2.60;;;2.40;;
30080;SDS011;16902;50.816;12.828;2022-10-16T04:46:44;2.30;;;2.10;;
30080;SDS011;16902;50.816;12.828;2022-10-16T04:51:46;2.00;;;1.90;;
30080;SDS011;16902;50.816;12.828;2022-10-16T04:56:48;2.10;;;2.00;;
30080;SDS011;16902;50.816;12.828;2022-10-16T05:01:53;1.95;;;1.92;;
30080;SDS011;16902;50.816;12.828;2022-10-16T05:06:55;2.20;;;2.10;;
30080;SDS011;16902;50.816;12.828;2022-10-16T05:11:56;2.42;;;2.33;;
30080;SDS011;16902;50.816;12.828;2022-10-16T05:16:59;5.75;;;2.30;;
30080;SDS011;16902;50.816;12.828;2022-10-16T05:22:01;2.40;;;2.20;;
30080;SDS011;16902;50.816;12.828;2022-10-16T05:27:03;2.20;;;2.10;;
30080;SDS011;16902;50.816;12.828;2022-10-16T05:32:05;2.20;;;2.10;;
30080;SDS011;16902;50.816;12.828;2022-10-16T05:37:07;2.22;;;2.03;;
30080;SDS011;16902;50.816;12.828;2022-10-16T05:42:09;1.98;;;1.98;;
30080;SDS011;16902;50.816;12.828;2022-10-16T05:47:12;2.70;;;2.50;;
30080;SDS011;16902;50.816;12.828;2022-10-16T05:52:14;2.13;;;2.13;;
30080;SDS011;16902;50.816;12.828;2022-10-16T05:57:16;2.40;;;2.30;;
30080;SDS011;16902;50.816;12.828;2022-10-16T06:02:18;2.30;;;2.30;;
30080;SDS011;16902;50.816;12.828;2022-10-16T06:07:20;2.33;;;2.22;;
30080;SDS011;16902;50.816;12.828;2022-10-16T06:12:22;2.90;;;2.70;;
30080;SDS011;16902;50.816;12.828;2022-10-16T06:17:24;2.60;;;2.50;;
30080;SDS011;16902;50.816;12.828;2022-10-16T06:22:26;2.80;;;2.60;;
30080;SDS011;16902;50.816;12.828;2022-10-16T06:27:28;2.80;;;2.70;;
30080;SDS011;16902;50.816;12.828;2022-10-16T06:32:30;2.75;;;2.65;;
30080;SDS011;16902;50.816;12.828;2022-10-16T06:37:32;2.78;;;2.67;;
30080;SDS011;16902;50.816;12.828;2022-10-16T06:42:33;2.50;;;2.40;;
30080;SDS011;16902;50.816;12.828;2022-10-16T06:47:35;2.58;;;2.47;;
30080;SDS011;16902;50.816;12.828;2022-10-16T06:52:37;2.60;;;2.33;;
30080;SDS011;16902;50.816;12.828;2022-10-16T06:57:39;2.70;;;2.60;;
30080;SDS011;16902;50.816;12.828;2022-10-16T07:02:41;2.38;;;2.28;;
30080;SDS011;16902;50.816;12.828;2022-10-16T07:07:42;2.90;;;2.80;;
30080;SDS011;16902;50.816;12.828;2022-10-16T07:12:44;2.80;;;2.70;;
30080;SDS011;16902;50.816;12.828;2022-10-16T07:17:46;2.70;;;2.50;;
30080;SDS011;16902;50.816;12.828;2022-10-16T07:22:48;3.20;;;3.00;;
30080;SDS011;16902;50.816;12.828;2022-10-16T07:27:49;3.20;;;3.10;;
30080;SDS011;16902;50.816;12.828;2022-10-16T07:32:51;3.05;;;2.95;;
30080;SDS011;16902;50.816;12.828;2022-10-16T07:37:53;3.13;;;2.97;;
30080;SDS011;16902;50.816;12.828;2022-10-16T07:42:55;3.10;;;3.00;;
30080;SDS011;16902;50.816;12.828;2022-10-16T07:47:57;3.67;;;3.47;;
30080;SDS011;16902;50.816;12.828;2022-10-16T07:52:58;3.47;;;3.38;;
30080;SDS011;16902;50.816;12.828;2022-10-16T07:58:00;3.80;;;3.60;;
30080;SDS011;16902;50.816;12.828;2022-10-16T08:03:02;3.50;;;3.30;;
30080;SDS011;16902;50.816;12.828;2022-10-16T08:08:04;3.92;;;3.72;;
30080;SDS011;16902;50.816;12.828;2022-10-16T08:13:06;3.95;;;3.72;;
30080;SDS011;16902;50.816;12.828;2022-10-16T08:18:08;4.20;;;3.90;;
30080;SDS011;16902;50.816;12.828;2022-10-16T08:23:11;3.83;;;3.63;;
30080;SDS011;16902;50.816;12.828;2022-10-16T08:28:14;4.60;;;4.10;;
30080;SDS011;16902;50.816;12.828;2022-10-16T08:33:17;4.57;;;4.18;;
30080;SDS011;16902;50.816;12.828;2022-10-16T08:38:18;4.38;;;4.18;;
30080;SDS011;16902;50.816;12.828;2022-10-16T08:48:45;4.97;;;4.70;;
30080;SDS011;16902;50.816;12.828;2022-10-16T08:53:54;5.22;;;4.78;;
30080;SDS011;16902;50.816;12.828;2022-10-16T08:58:58;5.00;;;4.80;;
30080;SDS011;16902;50.816;12.828;2022-10-16T09:14:34;5.25;;;4.85;;
30080;SDS011;16902;50.816;12.828;2022-10-16T09:19:54;5.30;;;5.10;;
30080;SDS011;16902;50.816;12.828;2022-10-16T09:25:10;5.57;;;5.28;;
30080;SDS011;16902;50.816;12.828;2022-10-16T09:30:17;6.05;;;5.72;;
30080;SDS011;16902;50.816;12.828;2022-10-16T09:35:22;5.20;;;5.00;;
30080;SDS011;16902;50.816;12.828;2022-10-16T09:40:37;5.70;;;5.40;;
30080;SDS011;16902;50.816;12.828;2022-10-16T09:45:40;5.22;;;5.03;;
30080;SDS011;16902;50.816;12.828;2022-10-16T09:50:42;5.72;;;5.47;;
30080;SDS011;16902;50.816;12.828;2022-10-16T09:55:47;6.10;;;5.70;;
30080;SDS011;16902;50.816;12.828;2022-10-16T10:00:52;6.15;;;5.78;;
30080;SDS011;16902;50.816;12.828;2022-10-16T10:05:55;5.30;;;5.00;;
30080;SDS011;16902;50.816;12.828;2022-10-16T10:11:02;6.03;;;5.72;;
30080;SDS011;16902;50.816;12.828;2022-10-16T10:16:04;6.40;;;6.10;;
30080;SDS011;16902;50.816;12.828;2022-10-16T10:21:12;6.00;;;5.70;;
30080;SDS011;16902;50.816;12.828;2022-10-16T10:26:20;5.95;;;5.55;;
30080;SDS011;16902;50.816;12.828;2022-10-16T10:43:19;6.13;;;5.80;;
30080;SDS011;16902;50.816;12.828;2022-10-16T10:59:26;8.57;;;6.85;;
30080;SDS011;16902;50.816;12.828;2022-10-16T11:10:24;6.95;;;6.65;;
30080;SDS011;16902;50.816;12.828;2022-10-16T11:15:31;7.65;;;7.25;;
30080;SDS011;16902;50.816;12.828;2022-10-16T11:20:42;7.38;;;7.07;;
30080;SDS011;16902;50.816;12.828;2022-10-16T11:25:48;8.10;;;7.80;;
30080;SDS011;16902;50.816;12.828;2022-10-16T11:30:52;9.00;;;8.60;;
30080;SDS011;16902;50.816;12.828;2022-10-16T11:46:38;9.27;;;8.88;;
30080;SDS011;16902;50.816;12.828;2022-10-16T12:07:39;10.07;;;9.57;;
30080;SDS011;16902;50.816;12.828;2022-10-16T12:12:48;9.60;;;9.20;;
30080;SDS011;16902;50.816;12.828;2022-10-16T12:17:50;10.35;;;9.93;;
30080;SDS011;16902;50.816;12.828;2022-10-16T12:22:54;10.30;;;9.80;;
30080;SDS011;16902;50.816;12.828;2022-10-16T12:28:05;10.35;;;9.95;;
30080;SDS011;16902;50.816;12.828;2022-10-16T12:33:19;10.10;;;9.70;;
30080;SDS011;16902;50.816;12.828;2022-10-16T12:43:50;10.75;;;10.35;;
30080;SDS011;16902;50.816;12.828;2022-10-16T12:48:52;10.05;;;9.65;;
30080;SDS011;16902;50.816;12.828;2022-10-16T13:09:44;9.40;;;9.00;;
30080;SDS011;16902;50.816;12.828;2022-10-16T13:20:21;8.25;;;7.82;;
30080;SDS011;16902;50.816;12.828;2022-10-16T13:26:21;8.20;;;7.80;;
30080;SDS011;16902;50.816;12.828;2022-10-16T13:31:28;7.80;;;7.50;;
30080;SDS011;16902;50.816;12.828;2022-10-16T13:36:42;7.45;;;7.15;;
30080;SDS011;16902;50.816;12.828;2022-10-16T13:41:45;7.63;;;7.32;;
30080;SDS011;16902;50.816;12.828;2022-10-16T13:46:57;7.93;;;7.53;;
30080;SDS011;16902;50.816;12.828;2022-10-16T13:52:00;7.80;;;7.50;;
30080;SDS011;16902;50.816;12.828;2022-10-16T13:57:05;7.93;;;7.53;;
30080;SDS011;16902;50.816;12.828;2022-10-16T14:02:33;8.00;;;7.70;;
30080;SDS011;16902;50.816;12.828;2022-10-16T14:07:39;7.80;;;7.50;;
30080;SDS011;16902;50.816;12.828;2022-10-16T14:12:42;8.20;;;7.78;;
30080;SDS011;16902;50.816;12.828;2022-10-16T14:17:44;7.65;;;7.35;;
30080;SDS011;16902;50.816;12.828;2022-10-16T14:22:49;7.93;;;7.53;;
30080;SDS011;16902;50.816;12.828;2022-10-16T14:28:21;7.30;;;7.00;;
30080;SDS011;16902;50.816;12.828;2022-10-16T14:33:30;7.20;;;6.90;;
30080;SDS011;16902;50.816;12.828;2022-10-16T14:38:35;6.97;;;6.70;;
30080;SDS011;16902;50.816;12.828;2022-10-16T14:43:39;7.38;;;7.07;;
30080;SDS011;16902;50.816;12.828;2022-10-16T14:48:43;7.35;;;7.05;;
30080;SDS011;16902;50.816;12.828;2022-10-16T14:53:47;7.10;;;6.80;;
30080;SDS011;16902;50.816;12.828;2022-10-16T14:58:52;6.85;;;6.55;;
30080;SDS011;16902;50.816;12.828;2022-10-16T15:03:54;6.72;;;6.32;;
30080;SDS011;16902;50.816;12.828;2022-10-16T15:08:56;6.70;;;6.40;;
30080;SDS011;16902;50.816;12.828;2022-10-16T15:13:58;7.28;;;6.80;;
30080;SDS011;16902;50.816;12.828;2022-10-16T15:19:00;6.70;;;6.40;;
30080;SDS011;16902;50.816;12.828;2022-10-16T15:24:02;7.00;;;6.60;;
30080;SDS011;16902;50.816;12.828;2022-10-16T15:29:03;6.70;;;6.15;;
30080;SDS011;16902;50.816;12.828;2022-10-16T15:34:08;6.32;;;5.93;;
30080;SDS011;16902;50.816;12.828;2022-10-16T15:39:12;6.40;;;6.05;;
30080;SDS011;16902;50.816;12.828;2022-10-16T15:44:18;5.15;;;4.95;;
30080;SDS011;16902;50.816;12.828;2022-10-16T15:49:20;5.63;;;5.22;;
30080;SDS011;16902;50.816;12.828;2022-10-16T15:54:21;5.53;;;5.20;;
30080;SDS011;16902;50.816;12.828;2022-10-16T15:59:24;4.65;;;4.45;;
30080;SDS011;16902;50.816;12.828;2022-10-16T16:04:25;6.32;;;4.45;;
30080;SDS011;16902;50.816;12.828;2022-10-16T16:09:44;4.60;;;4.40;;
30080;SDS011;16902;50.816;12.828;2022-10-16T16:14:47;5.05;;;4.70;;
30080;SDS011;16902;50.816;12.828;2022-10-16T16:19:50;4.18;;;3.78;;
30080;SDS011;16902;50.816;12.828;2022-10-16T16:24:52;4.75;;;4.35;;
30080;SDS011;16902;50.816;12.828;2022-10-16T16:29:54;4.90;;;4.55;;
30080;SDS011;16902;50.816;12.828;2022-10-16T16:34:57;4.40;;;4.07;;
30080;SDS011;16902;50.816;12.828;2022-10-16T16:39:58;4.10;;;3.80;;
30080;SDS011;16902;50.816;12.828;2022-10-16T16:45:00;5.85;;;5.35;;
30080;SDS011;16902;50.816;12.828;2022-10-16T16:50:02;5.25;;;4.85;;
30080;SDS011;16902;50.816;12.828;2022-10-16T16:55:06;6.25;;;5.75;;
30080;SDS011;16902;50.816;12.828;2022-10-16T17:00:08;6.90;;;6.30;;
30080;SDS011;16902;50.816;12.828;2022-10-16T17:05:11;6.57;;;5.97;;
30080;SDS011;16902;50.816;12.828;2022-10-16T17:10:12;6.15;;;5.55;;
30080;SDS011;16902;50.816;12.828;2022-10-16T17:15:14;5.30;;;4.90;;
30080;SDS011;16902;50.816;12.828;2022-10-16T17:20:16;5.15;;;4.75;;
30080;SDS011;16902;50.816;12.828;2022-10-16T17:25:17;5.38;;;4.88;;
30080;SDS011;16902;50.816;12.828;2022-10-16T17:30:19;5.72;;;4.78;;
30080;SDS011;16902;50.816;12.828;2022-10-16T17:35:20;6.13;;;5.50;;
30080;SDS011;16902;50.816;12.828;2022-10-16T17:40:22;5.55;;;4.90;;
30080;SDS011;16902;50.816;12.828;2022-10-16T17:45:24;6.03;;;5.45;;
30080;SDS011;16902;50.816;12.828;2022-10-16T17:50:25;7.43;;;6.13;;
30080;SDS011;16902;50.816;12.828;2022-10-16T17:55:27;8.93;;;7.13;;
30080;SDS011;16902;50.816;12.828;2022-10-16T18:00:29;7.20;;;6.50;;
30080;SDS011;16902;50.816;12.828;2022-10-16T18:05:30;13.43;;;8.68;;
30080;SDS011;16902;50.816;12.828;2022-10-16T18:10:32;9.35;;;8.07;;
30080;SDS011;16902;50.816;12.828;2022-10-16T18:15:34;11.27;;;10.10;;
30080;SDS011;16902;50.816;12.828;2022-10-16T18:20:35;9.52;;;8.55;;
30080;SDS011;16902;50.816;12.828;2022-10-16T18:25:37;10.82;;;8.82;;
30080;SDS011;16902;50.816;12.828;2022-10-16T18:30:38;12.70;;;9.40;;
30080;SDS011;16902;50.816;12.828;2022-10-16T18:35:40;8.63;;;7.75;;
30080;SDS011;16902;50.816;12.828;2022-10-16T18:40:42;10.13;;;7.55;;
30080;SDS011;16902;50.816;12.828;2022-10-16T18:45:44;9.60;;;8.80;;
30080;SDS011;16902;50.816;12.828;2022-10-16T18:56:31;8.27;;;7.43;;
30080;SDS011;16902;50.816;12.828;2022-10-16T19:01:33;8.70;;;7.60;;
30080;SDS011;16902;50.816;12.828;2022-10-16T19:06:37;9.82;;;8.75;;
30080;SDS011;16902;50.816;12.828;2022-10-16T19:11:42;11.48;;;8.77;;
30080;SDS011;16902;50.816;12.828;2022-10-16T19:16:45;9.18;;;8.32;;
30080;SDS011;16902;50.816;12.828;2022-10-16T19:21:46;9.23;;;8.32;;
30080;SDS011;16902;50.816;12.828;2022-10-16T19:26:51;9.57;;;8.60;;
30080;SDS011;16902;50.816;12.828;2022-10-16T19:31:52;7.97;;;7.25;;
30080;SDS011;16902;50.816;12.828;2022-10-16T19:36:54;9.70;;;7.80;;
30080;SDS011;16902;50.816;12.828;2022-10-16T19:41:56;8.00;;;7.30;;
30080;SDS011;16902;50.816;12.828;2022-10-16T19:46:57;7.93;;;7.32;;
30080;SDS011;16902;50.816;12.828;2022-10-16T19:51:59;7.68;;;6.97;;
30080;SDS011;16902;50.816;12.828;2022-10-16T19:57:01;8.50;;;7.15;;
30080;SDS011;16902;50.816;12.828;2022-10-16T20:02:02;7.68;;;6.97;;
30080;SDS011;16902;50.816;12.828;2022-10-16T20:07:04;7.30;;;6.60;;
30080;SDS011;16902;50.816;12.828;2022-10-16T20:12:06;8.15;;;7.45;;
30080;SDS011;16902;50.816;12.828;2022-10-16T20:17:07;9.07;;;8.27;;
30080;SDS011;16902;50.816;12.828;2022-10-16T20:22:09;14.90;;;9.18;;
30080;SDS011;16902;50.816;12.828;2022-10-16T20:27:10;10.55;;;8.95;;
30080;SDS011;16902;50.816;12.828;2022-10-16T20:32:12;11.48;;;10.38;;
30080;SDS011;16902;50.816;12.828;2022-10-16T20:37:14;11.13;;;10.10;;
30080;SDS011;16902;50.816;12.828;2022-10-16T20:42:16;10.10;;;9.13;;
30080;SDS011;16902;50.816;12.828;2022-10-16T20:47:18;10.57;;;9.15;;
30080;SDS011;16902;50.816;12.828;2022-10-16T20:52:19;8.90;;;8.00;;
30080;SDS011;16902;50.816;12.828;2022-10-16T20:57:21;11.05;;;8.93;;
30080;SDS011;16902;50.816;12.828;2022-10-16T21:02:23;10.15;;;8.60;;
30080;SDS011;16902;50.816;12.828;2022-10-16T21:07:25;10.80;;;8.38;;
30080;SDS011;16902;50.816;12.828;2022-10-16T21:12:28;10.27;;;9.27;;
30080;SDS011;16902;50.816;12.828;2022-10-16T21:17:30;11.23;;;10.05;;
30080;SDS011;16902;50.816;12.828;2022-10-16T21:22:32;10.63;;;9.68;;
30080;SDS011;16902;50.816;12.828;2022-10-16T21:27:37;14.00;;;9.55;;
30080;SDS011;16902;50.816;12.828;2022-10-16T21:32:40;9.80;;;9.00;;
30080;SDS011;16902;50.816;12.828;2022-10-16T21:37:42;13.43;;;8.55;;
30080;SDS011;16902;50.816;12.828;2022-10-16T21:42:48;8.77;;;8.02;;
30080;SDS011;16902;50.816;12.828;2022-10-16T21:47:49;8.57;;;7.65;;
30080;SDS011;16902;50.816;12.828;2022-10-16T21:52:51;8.05;;;7.38;;
30080;SDS011;16902;50.816;12.828;2022-10-16T21:57:53;13.25;;;9.15;;
30080;SDS011;16902;50.816;12.828;2022-10-16T22:02:54;9.68;;;8.77;;
30080;SDS011;16902;50.816;12.828;2022-10-16T22:07:58;9.70;;;8.90;;
30080;SDS011;16902;50.816;12.828;2022-10-16T22:13:00;10.38;;;9.30;;
30080;SDS011;16902;50.816;12.828;2022-10-16T22:18:01;13.05;;;9.10;;
30080;SDS011;16902;50.816;12.828;2022-10-16T22:23:03;10.02;;;9.07;;
30080;SDS011;16902;50.816;12.828;2022-10-16T22:28:05;9.98;;;9.07;;
30080;SDS011;16902;50.816;12.828;2022-10-16T22:33:06;10.93;;;9.82;;
30080;SDS011;16902;50.816;12.828;2022-10-16T22:38:08;11.70;;;10.45;;
30080;SDS011;16902;50.816;12.828;2022-10-16T22:43:10;10.38;;;9.35;;
30080;SDS011;16902;50.816;12.828;2022-10-16T22:48:11;9.23;;;8.43;;
30080;SDS011;16902;50.816;12.828;2022-10-16T22:53:13;10.15;;;8.95;;
30080;SDS011;16902;50.816;12.828;2022-10-16T22:58:14;9.43;;;8.52;;
30080;SDS011;16902;50.816;12.828;2022-10-16T23:03:16;9.70;;;8.75;;
30080;SDS011;16902;50.816;12.828;2022-10-16T23:08:18;9.85;;;8.70;;
30080;SDS011;16902;50.816;12.828;2022-10-16T23:13:19;10.70;;;9.70;;
30080;SDS011;16902;50.816;12.828;2022-10-16T23:18:21;11.20;;;9.65;;
30080;SDS011;16902;50.816;12.828;2022-10-16T23:23:23;9.48;;;8.68;;
30080;SDS011;16902;50.816;12.828;2022-10-16T23:28:24;9.70;;;8.80;;
30080;SDS011;16902;50.816;12.828;2022-10-16T23:33:26;9.60;;;8.70;;
30080;SDS011;16902;50.816;12.828;2022-10-16T23:38:27;9.60;;;8.80;;
30080;SDS011;16902;50.816;12.828;2022-10-16T23:43:29;10.90;;;9.38;;
30080;SDS011;16902;50.816;12.828;2022-10-16T23:48:31;11.90;;;8.95;;
30080;SDS011;16902;50.816;12.828;2022-10-16T23:53:32;10.43;;;9.43;;
30080;SDS011;16902;50.816;12.828;2022-10-16T23:58:34;9.25;;;8.45;;
